Time,TemperatureF,DewpointF,PressureIn,WindDirection,WindDirectionDegrees,WindSpeedMPH,WindSpeedGustMPH,Humidity,HourlyPrecipIn,Conditions,Clouds,dailyrainin,SolarRadiationWatts/m^2,SoftwareType,DateUTC
2013-10-08 00:00:00,53.6,46.6,30.04,NNE,15,0.0,0.0,77,0.00,,CLR,0.00,0.00,VWS V14.01,2013-10-08 04:00:00,
2013-10-08 00:01:00,53.5,46.5,30.04,NNE,15,0.0,1.0,77,0.00,,CLR,0.00,0.00,VWS V14.01,2013-10-08 04:01:00,
2013-10-08 00:02:00,53.5,46.5,30.04,NNE,15,0.0,1.0,77,0.00,,CLR,0.00,0.00,VWS V14.01,2013-10-08 04:02:00,
2013-10-08 00:03:00,53.5,46.5,30.04,NNE,15,0.0,2.0,77,0.00,,CLR,0.00,0.00,VWS V14.01,2013-10-08 04:03:00,
2013-10-08 00:08:00,53.4,46.4,30.04,NNE,15,0.0,0.0,77,0.00,,CLR,0.00,0.00,VWS V14.01,2013-10-08 04:08:00,
2013-10-08 00:13:00,53.3,46.6,30.04,NNE,15,0.0,0.0,78,0.00,,CLR,0.00,0.00,VWS V14.01,2013-10-08 04:13:00,
2013-10-08 00:18:00,53.2,46.2,30.04,NNE,15,0.0,0.0,77,0.00,,CLR,0.00,0.00,VWS V14.01,2013-10-08 04:18:00,
2013-10-08 00:23:00,53.0,46.3,30.04,NNE,15,0.0,1.0,78,0.00,,CLR,0.00,0.00,VWS V14.01,2013-10-08 04:23:00,
2013-10-08 00:28:00,52.9,46.2,30.04,NNE,15,0.0,1.0,78,0.00,,CLR,0.00,0.00,VWS V14.01,2013-10-08 04:28:00,
2013-10-08 00:33:00,52.8,46.5,30.04,NNE,15,0.0,1.0,79,0.00,,CLR,0.00,0.00,VWS V14.01,2013-10-08 04:33:00,
2013-10-08 00:39:00,52.6,46.3,30.05,NNE,15,0.0,2.0,79,0.00,,CLR,0.00,0.00,VWS V14.01,2013-10-08 04:39:00,
2013-10-08 00:44:00,52.4,46.1,30.05,NNE,15,0.0,3.0,79,0.00,,CLR,0.00,0.00,VWS V14.01,2013-10-08 04:44:00,
2013-10-08 00:49:00,52.3,46.3,30.05,NNE,17,0.0,3.0,80,0.00,,CLR,0.00,0.00,VWS V14.01,2013-10-08 04:49:00,
2013-10-08 00:54:00,52.1,46.1,30.05,NNE,22,0.0,1.0,80,0.00,,CLR,0.00,0.00,VWS V14.01,2013-10-08 04:54:00,
2013-10-08 00:59:00,52.0,46.0,30.05,NNE,22,0.0,0.0,80,0.00,,CLR,0.00,0.00,VWS V14.01,2013-10-08 04:59:00,
2013-10-08 01:04:00,51.9,45.9,30.05,NNE,22,0.0,0.0,80,0.00,,CLR,0.00,0.00,VWS V14.01,2013-10-08 05:04:00,
2013-10-08 01:09:00,51.7,46.1,30.06,NNE,22,0.0,0.0,81,0.00,,CLR,0.00,0.00,VWS V14.01,2013-10-08 05:09:00,
2013-10-08 01:15:00,51.4,45.8,30.06,NNE,22,0.0,0.0,81,0.00,,CLR,0.00,0.00,VWS V14.01,2013-10-08 05:15:00,
2013-10-08 01:20:00,51.2,45.6,30.06,NNE,22,0.0,0.0,81,0.00,,CLR,0.00,0.00,VWS V14.01,2013-10-08 05:20:00,
2013-10-08 01:25:00,51.0,45.4,30.06,NNE,22,0.0,0.0,81,0.00,,CLR,0.00,0.00,VWS V14.01,2013-10-08 05:25:00,
2013-10-08 01:30:00,50.8,45.5,30.07,NNE,22,0.0,0.0,82,0.00,,CLR,0.00,0.00,VWS V14.01,2013-10-08 05:30:00,
2013-10-08 01:35:00,50.5,45.2,30.07,NNE,22,0.0,0.0,82,0.00,,CLR,0.00,0.00,VWS V14.01,2013-10-08 05:35:00,
2013-10-08 01:40:00,50.2,45.2,30.07,NNE,22,0.0,1.0,83,0.00,,CLR,0.00,0.00,VWS V14.01,2013-10-08 05:40:00,
2013-10-08 01:45:00,49.9,45.3,30.07,North,360,1.0,2.0,84,0.00,,CLR,0.00,0.00,VWS V14.01,2013-10-08 05:45:00,
2013-10-08 01:51:00,50.0,45.4,30.06,NNW,342,2.0,5.0,84,0.00,,CLR,0.00,0.00,VWS V14.01,2013-10-08 05:51:00,
2013-10-08 01:56:00,50.4,45.8,30.06,NNW,344,1.0,6.0,84,0.00,,CLR,0.00,0.00,VWS V14.01,2013-10-08 05:56:00,
2013-10-08 02:01:00,50.8,45.8,30.07,NNW,348,4.0,4.0,83,0.00,,CLR,0.00,0.00,VWS V14.01,2013-10-08 06:01:00,
2013-10-08 02:06:00,51.3,46.0,30.07,NNW,345,0.0,6.0,82,0.00,,CLR,0.00,0.00,VWS V14.01,2013-10-08 06:06:00,
2013-10-08 02:11:00,51.7,45.7,30.07,North,360,0.0,4.0,80,0.00,,CLR,0.00,0.00,VWS V14.01,2013-10-08 06:11:00,
2013-10-08 02:16:00,52.1,45.8,30.07,NNE,13,0.0,3.0,79,0.00,,CLR,0.00,0.00,VWS V14.01,2013-10-08 06:16:00,
2013-10-08 02:21:00,52.4,46.1,30.07,NNE,15,0.0,0.0,79,0.00,,CLR,0.00,0.00,VWS V14.01,2013-10-08 06:21:00,
2013-10-08 02:26:00,52.4,45.8,30.07,NNE,15,0.0,0.0,78,0.00,,CLR,0.00,0.00,VWS V14.01,2013-10-08 06:26:00,
2013-10-08 02:32:00,52.3,45.7,30.07,NNE,15,0.0,0.0,78,0.00,,CLR,0.00,0.00,VWS V14.01,2013-10-08 06:32:00,
2013-10-08 02:37:00,52.2,45.6,30.08,NNE,15,0.0,0.0,78,0.00,,CLR,0.00,0.00,VWS V14.01,2013-10-08 06:37:00,
2013-10-08 02:42:00,52.1,45.5,30.08,NNE,15,0.0,0.0,78,0.00,,CLR,0.00,0.00,VWS V14.01,2013-10-08 06:42:00,
2013-10-08 02:47:00,51.9,45.6,30.08,NNE,15,0.0,0.0,79,0.00,,CLR,0.00,0.00,VWS V14.01,2013-10-08 06:47:00,
2013-10-08 02:52:00,51.7,45.4,30.08,NNE,15,0.0,0.0,79,0.00,,CLR,0.00,0.00,VWS V14.01,2013-10-08 06:52:00,
2013-10-08 02:57:00,51.4,45.1,30.08,NNE,15,0.0,0.0,79,0.00,,CLR,0.00,0.00,VWS V14.01,2013-10-08 06:57:00,
2013-10-08 03:02:00,51.2,44.9,30.08,NNE,15,0.0,0.0,79,0.00,,CLR,0.00,0.00,VWS V14.01,2013-10-08 07:02:00,
2013-10-08 03:08:00,50.8,44.5,30.08,NNE,15,0.0,0.0,79,0.00,,CLR,0.00,0.00,VWS V14.01,2013-10-08 07:08:00,
2013-10-08 03:13:00,50.5,44.9,30.08,NNE,15,0.0,0.0,81,0.00,,CLR,0.00,0.00,VWS V14.01,2013-10-08 07:13:00,
2013-10-08 03:18:00,50.0,44.7,30.09,NNE,15,0.0,0.0,82,0.00,,CLR,0.00,0.00,VWS V14.01,2013-10-08 07:18:00,
2013-10-08 03:23:00,49.6,44.7,30.09,NNE,15,0.0,0.0,83,0.00,,CLR,0.00,0.00,VWS V14.01,2013-10-08 07:23:00,
2013-10-08 03:28:00,49.2,44.6,30.09,NNE,16,0.0,0.0,84,0.00,,CLR,0.00,0.00,VWS V14.01,2013-10-08 07:28:00,
2013-10-08 03:33:00,49.0,44.4,30.09,NNE,18,0.0,0.0,84,0.00,,CLR,0.00,0.00,VWS V14.01,2013-10-08 07:33:00,
2013-10-08 03:38:00,48.9,44.6,30.09,NNE,18,0.0,1.0,85,0.00,,CLR,0.00,0.00,VWS V14.01,2013-10-08 07:38:00,
2013-10-08 03:43:00,48.8,44.5,30.09,SSE,150,0.0,3.0,85,0.00,,CLR,0.00,0.00,VWS V14.01,2013-10-08 07:43:00,
2013-10-08 03:48:00,49.1,44.8,30.09,SSE,150,0.0,0.0,85,0.00,,CLR,0.00,0.00,VWS V14.01,2013-10-08 07:48:00,
2013-10-08 03:53:00,49.3,44.7,30.09,SSE,150,0.0,1.0,84,0.00,,CLR,0.00,0.00,VWS V14.01,2013-10-08 07:53:00,
2013-10-08 03:59:00,49.5,44.9,30.10,WSW,240,0.0,0.0,84,0.00,,CLR,0.00,0.00,VWS V14.01,2013-10-08 07:59:00,
2013-10-08 04:04:00,49.6,45.0,30.10,WSW,240,0.0,0.0,84,0.00,,CLR,0.00,0.00,VWS V14.01,2013-10-08 08:04:00,
2013-10-08 04:09:00,49.6,45.0,30.10,WSW,240,0.0,0.0,84,0.00,,CLR,0.00,0.00,VWS V14.01,2013-10-08 08:09:00,
2013-10-08 04:14:00,49.6,44.7,30.10,WSW,240,0.0,0.0,83,0.00,,CLR,0.00,0.00,VWS V14.01,2013-10-08 08:14:00,
2013-10-08 04:19:00,49.5,44.6,30.11,WSW,240,0.0,0.0,83,0.00,,CLR,0.00,0.00,VWS V14.01,2013-10-08 08:19:00,
2013-10-08 04:24:00,49.4,44.5,30.11,WSW,240,0.0,0.0,83,0.00,,CLR,0.00,0.00,VWS V14.01,2013-10-08 08:24:00,
2013-10-08 04:29:00,49.3,44.7,30.12,WSW,240,0.0,0.0,84,0.00,,CLR,0.00,0.00,VWS V14.01,2013-10-08 08:29:00,
2013-10-08 04:34:00,49.2,44.6,30.12,WSW,240,0.0,0.0,84,0.00,,CLR,0.00,0.00,VWS V14.01,2013-10-08 08:34:00,
2013-10-08 04:39:00,49.0,44.4,30.12,WSW,240,0.0,0.0,84,0.00,,CLR,0.00,0.00,VWS V14.01,2013-10-08 08:39:00,
2013-10-08 04:44:00,48.8,44.2,30.12,WSW,240,0.0,0.0,84,0.00,,CLR,0.00,0.00,VWS V14.01,2013-10-08 08:44:00,
2013-10-08 04:49:00,48.6,44.0,30.12,WSW,240,0.0,0.0,84,0.00,,CLR,0.00,0.00,VWS V14.01,2013-10-08 08:49:00,
2013-10-08 04:55:00,48.4,44.1,30.13,WSW,240,0.0,0.0,85,0.00,,CLR,0.00,0.00,VWS V14.01,2013-10-08 08:55:00,
2013-10-08 05:00:00,48.2,44.8,30.13,WSW,240,0.0,0.0,88,0.00,,CLR,0.00,0.00,VWS V14.01,2013-10-08 09:00:00,
2013-10-08 05:05:00,48.0,43.7,30.13,WSW,240,0.0,0.0,85,0.00,,CLR,0.00,0.00,VWS V14.01,2013-10-08 09:05:00,
2013-10-08 05:10:00,47.8,43.5,30.14,WSW,240,0.0,0.0,85,0.00,,CLR,0.00,0.00,VWS V14.01,2013-10-08 09:10:00,
2013-10-08 05:15:00,47.5,43.5,30.14,WSW,240,0.0,0.0,86,0.00,,CLR,0.00,0.00,VWS V14.01,2013-10-08 09:15:00,
2013-10-08 05:20:00,47.3,43.6,30.14,WSW,240,0.0,0.0,87,0.00,,CLR,0.00,0.00,VWS V14.01,2013-10-08 09:20:00,
2013-10-08 05:25:00,47.0,43.3,30.15,WSW,240,0.0,0.0,87,0.00,,CLR,0.00,0.00,VWS V14.01,2013-10-08 09:25:00,
2013-10-08 05:30:00,46.8,43.1,30.14,WSW,240,0.0,0.0,87,0.00,,CLR,0.00,0.00,VWS V14.01,2013-10-08 09:30:00,
2013-10-08 05:35:00,46.7,43.3,30.15,WSW,240,0.0,0.0,88,0.00,,CLR,0.00,0.00,VWS V14.01,2013-10-08 09:35:00,
2013-10-08 05:40:00,46.5,43.1,30.15,WSW,240,0.0,0.0,88,0.00,,CLR,0.00,0.00,VWS V14.01,2013-10-08 09:40:00,
2013-10-08 05:45:00,46.3,43.2,30.15,WSW,240,0.0,0.0,89,0.00,,CLR,0.00,0.00,VWS V14.01,2013-10-08 09:45:00,
2013-10-08 05:50:00,46.1,43.0,30.16,WSW,240,0.0,0.0,89,0.00,,CLR,0.00,0.00,VWS V14.01,2013-10-08 09:50:00,
2013-10-08 05:55:00,45.9,42.8,30.16,WSW,240,0.0,0.0,89,0.00,,CLR,0.00,0.00,VWS V14.01,2013-10-08 09:55:00,
2013-10-08 06:01:00,45.8,43.0,30.16,WSW,240,0.0,0.0,90,0.00,,CLR,0.00,0.00,VWS V14.01,2013-10-08 10:01:00,
2013-10-08 06:06:00,45.6,42.8,30.16,WSW,240,0.0,0.0,90,0.00,,CLR,0.00,0.00,VWS V14.01,2013-10-08 10:06:00,
2013-10-08 06:11:00,45.4,42.6,30.16,WSW,240,0.0,0.0,90,0.00,,CLR,0.00,0.00,VWS V14.01,2013-10-08 10:11:00,
2013-10-08 06:16:00,45.2,42.7,30.16,WSW,242,0.0,0.0,91,0.00,,CLR,0.00,0.00,VWS V14.01,2013-10-08 10:16:00,
2013-10-08 06:21:00,45.3,42.8,30.17,WSW,242,0.0,0.0,91,0.00,,CLR,0.00,0.00,VWS V14.01,2013-10-08 10:21:00,
2013-10-08 06:26:00,45.3,43.1,30.16,WSW,242,0.0,0.0,92,0.00,,CLR,0.00,0.00,VWS V14.01,2013-10-08 10:26:00,
2013-10-08 06:31:00,45.4,43.2,30.17,WSW,242,0.0,0.0,92,0.00,,CLR,0.00,0.00,VWS V14.01,2013-10-08 10:31:00,
2013-10-08 06:36:00,45.3,43.1,30.17,WSW,242,0.0,0.0,92,0.00,,CLR,0.00,0.00,VWS V14.01,2013-10-08 10:36:00,
2013-10-08 06:41:00,45.1,42.9,30.18,WSW,241,0.0,1.0,92,0.00,,CLR,0.00,0.00,VWS V14.01,2013-10-08 10:41:00,
2013-10-08 06:46:00,45.0,42.8,30.18,WSW,241,0.0,0.0,92,0.00,,CLR,0.00,0.00,VWS V14.01,2013-10-08 10:46:00,
2013-10-08 06:51:00,44.8,42.6,30.18,WSW,241,0.0,0.0,92,0.00,,CLR,0.00,0.00,VWS V14.01,2013-10-08 10:51:00,
2013-10-08 06:56:00,44.6,42.4,30.19,WSW,241,0.0,0.0,92,0.00,,CLR,0.00,0.00,VWS V14.01,2013-10-08 10:56:00,
2013-10-08 07:01:00,44.5,42.6,30.19,WSW,241,0.0,0.0,93,0.00,,CLR,0.00,0.00,VWS V14.01,2013-10-08 11:01:00,
2013-10-08 07:06:00,44.4,42.5,30.19,WSW,240,0.0,0.0,93,0.00,,CLR,0.00,0.00,VWS V14.01,2013-10-08 11:06:00,
2013-10-08 07:11:00,44.2,42.3,30.19,WSW,240,0.0,0.0,93,0.00,,CLR,0.00,0.00,VWS V14.01,2013-10-08 11:11:00,
2013-10-08 07:17:00,44.1,42.2,30.20,WSW,240,0.0,0.0,93,0.00,,CLR,0.00,0.00,VWS V14.01,2013-10-08 11:17:00,
2013-10-08 07:22:00,44.0,42.1,30.20,WSW,240,0.0,0.0,93,0.00,,CLR,0.00,5.00,VWS V14.01,2013-10-08 11:22:00,
2013-10-08 07:27:00,43.9,42.0,30.20,WSW,240,0.0,0.0,93,0.00,,CLR,0.00,7.00,VWS V14.01,2013-10-08 11:27:00,
2013-10-08 07:32:00,43.8,41.9,30.21,WSW,240,0.0,0.0,93,0.00,,CLR,0.00,9.00,VWS V14.01,2013-10-08 11:32:00,
2013-10-08 07:37:00,43.7,41.8,30.21,WSW,240,0.0,0.0,93,0.00,,CLR,0.00,12.00,VWS V14.01,2013-10-08 11:37:00,
2013-10-08 07:42:00,43.6,41.7,30.22,WSW,240,0.0,0.0,93,0.00,,CLR,0.00,14.00,VWS V14.01,2013-10-08 11:42:00,
2013-10-08 07:47:00,43.5,41.6,30.22,WSW,240,0.0,0.0,93,0.00,,CLR,0.00,18.00,VWS V14.01,2013-10-08 11:47:00,
2013-10-08 07:52:00,43.4,41.8,30.22,WSW,240,0.0,0.0,94,0.00,,CLR,0.00,23.00,VWS V14.01,2013-10-08 11:52:00,
2013-10-08 07:57:00,43.6,42.0,30.22,WSW,240,0.0,0.0,94,0.00,,CLR,0.00,42.00,VWS V14.01,2013-10-08 11:57:00,
2013-10-08 08:02:00,44.0,42.7,30.23,WSW,240,0.0,1.0,95,0.00,,CLR,0.00,47.00,VWS V14.01,2013-10-08 12:02:00,
2013-10-08 08:07:00,44.9,43.6,30.23,WSW,240,0.0,0.0,95,0.00,,CLR,0.00,56.00,VWS V14.01,2013-10-08 12:07:00,
2013-10-08 08:12:00,45.2,43.9,30.23,WSW,240,0.0,0.0,95,0.00,,CLR,0.00,46.00,VWS V14.01,2013-10-08 12:12:00,
2013-10-08 08:18:00,45.9,44.8,30.24,WSW,240,0.0,0.0,96,0.00,,CLR,0.00,58.00,VWS V14.01,2013-10-08 12:18:00,
2013-10-08 08:23:00,46.5,45.4,30.24,WSW,240,0.0,0.0,96,0.00,,CLR,0.00,46.00,VWS V14.01,2013-10-08 12:23:00,
2013-10-08 08:28:00,46.9,45.8,30.24,WSW,240,0.0,0.0,96,0.00,,CLR,0.00,100.00,VWS V14.01,2013-10-08 12:28:00,
2013-10-08 08:33:00,47.5,46.4,30.25,WSW,240,1.0,3.0,96,0.00,,CLR,0.00,111.00,VWS V14.01,2013-10-08 12:33:00,
2013-10-08 08:38:00,48.0,46.9,30.24,WSW,240,0.0,1.0,96,0.00,,CLR,0.00,139.00,VWS V14.01,2013-10-08 12:38:00,
2013-10-08 08:43:00,48.4,47.0,30.25,WSW,240,1.0,1.0,95,0.00,,CLR,0.00,151.00,VWS V14.01,2013-10-08 12:43:00,
2013-10-08 08:48:00,48.9,47.5,30.25,WSW,240,2.0,2.0,95,0.00,,CLR,0.00,179.00,VWS V14.01,2013-10-08 12:48:00,
2013-10-08 08:53:00,49.2,47.5,30.25,WSW,240,0.0,1.0,94,0.00,,CLR,0.00,183.00,VWS V14.01,2013-10-08 12:53:00,
2013-10-08 08:58:00,49.8,48.2,30.25,WSW,240,0.0,1.0,94,0.00,,CLR,0.00,172.00,VWS V14.01,2013-10-08 12:58:00,
2013-10-08 09:03:00,50.4,48.5,30.25,WSW,240,0.0,1.0,93,0.00,,CLR,0.00,123.00,VWS V14.01,2013-10-08 13:03:00,
2013-10-08 09:08:00,50.9,48.7,30.25,WSW,240,0.0,1.0,92,0.00,,CLR,0.00,162.00,VWS V14.01,2013-10-08 13:08:00,
2013-10-08 09:13:00,51.4,48.6,30.25,WSW,240,0.0,1.0,90,0.00,,CLR,0.00,176.00,VWS V14.01,2013-10-08 13:13:00,
2013-10-08 09:18:00,52.1,49.0,30.25,WSW,240,0.0,0.0,89,0.00,,CLR,0.00,193.00,VWS V14.01,2013-10-08 13:18:00,
2013-10-08 09:23:00,52.6,48.8,30.26,WSW,240,0.0,1.0,87,0.00,,CLR,0.00,211.00,VWS V14.01,2013-10-08 13:23:00,
2013-10-08 09:29:00,52.9,47.9,30.26,WSW,240,0.0,1.0,83,0.00,,CLR,0.00,237.00,VWS V14.01,2013-10-08 13:29:00,
2013-10-08 09:34:00,53.5,48.5,30.26,WSW,240,0.0,1.0,83,0.00,,CLR,0.00,283.00,VWS V14.01,2013-10-08 13:34:00,
2013-10-08 09:39:00,53.8,48.4,30.26,WSW,240,0.0,1.0,82,0.00,,CLR,0.00,313.00,VWS V14.01,2013-10-08 13:39:00,
2013-10-08 09:44:00,54.3,49.3,30.26,WSW,240,0.0,0.0,83,0.00,,CLR,0.00,345.00,VWS V14.01,2013-10-08 13:44:00,
2013-10-08 09:49:00,54.8,48.8,30.26,West,260,0.0,1.0,80,0.00,,CLR,0.00,369.00,VWS V14.01,2013-10-08 13:49:00,
2013-10-08 09:54:00,55.3,49.2,30.26,West,260,0.0,0.0,80,0.00,,CLR,0.00,383.00,VWS V14.01,2013-10-08 13:54:00,
2013-10-08 09:59:00,55.6,49.5,30.26,West,261,0.0,1.0,80,0.00,,CLR,0.00,390.00,VWS V14.01,2013-10-08 13:59:00,
2013-10-08 10:04:00,56.1,50.4,30.26,West,261,0.0,0.0,81,0.00,,CLR,0.00,394.00,VWS V14.01,2013-10-08 14:04:00,
2013-10-08 10:09:00,56.4,50.0,30.26,WNW,299,0.0,1.0,79,0.00,,CLR,0.00,399.00,VWS V14.01,2013-10-08 14:09:00,
2013-10-08 10:14:00,56.9,50.5,30.25,NNW,327,1.0,1.0,79,0.00,,CLR,0.00,403.00,VWS V14.01,2013-10-08 14:14:00,
2013-10-08 10:19:00,57.0,49.9,30.26,NW,311,0.0,4.0,77,0.00,,CLR,0.00,406.00,VWS V14.01,2013-10-08 14:19:00,
2013-10-08 10:24:00,57.3,50.2,30.26,NW,311,0.0,3.0,77,0.00,,CLR,0.00,410.00,VWS V14.01,2013-10-08 14:24:00,
2013-10-08 10:29:00,57.6,50.1,30.26,NW,311,0.0,1.0,76,0.00,,CLR,0.00,415.00,VWS V14.01,2013-10-08 14:29:00,
2013-10-08 10:34:00,58.1,49.9,30.26,NNW,345,0.0,4.0,74,0.00,,CLR,0.00,422.00,VWS V14.01,2013-10-08 14:34:00,
2013-10-08 10:39:00,58.9,50.3,30.26,SSE,147,0.0,0.0,73,0.00,,CLR,0.00,418.00,VWS V14.01,2013-10-08 14:39:00,
2013-10-08 10:44:00,59.1,49.7,30.26,NNE,17,1.0,2.0,71,0.00,,CLR,0.00,415.00,VWS V14.01,2013-10-08 14:44:00,
2013-10-08 10:49:00,59.4,50.0,30.27,ENE,68,0.0,0.0,71,0.00,,CLR,0.00,410.00,VWS V14.01,2013-10-08 14:49:00,
2013-10-08 10:54:00,60.3,51.2,30.26,NW,318,3.0,4.0,72,0.00,,CLR,0.00,401.00,VWS V14.01,2013-10-08 14:54:00,
2013-10-08 10:59:00,60.3,49.7,30.27,NNE,22,0.0,0.0,68,0.00,,CLR,0.00,404.00,VWS V14.01,2013-10-08 14:59:00,
2013-10-08 11:04:00,60.4,50.2,30.26,North,355,2.0,4.0,69,0.00,,CLR,0.00,415.00,VWS V14.01,2013-10-08 15:04:00,
2013-10-08 11:09:00,60.6,50.0,30.26,North,360,0.0,0.0,68,0.00,,CLR,0.00,431.00,VWS V14.01,2013-10-08 15:09:00,
2013-10-08 11:14:00,61.0,49.6,30.26,East,82,1.0,5.0,66,0.00,,CLR,0.00,455.00,VWS V14.01,2013-10-08 15:14:00,
2013-10-08 11:19:00,61.0,50.0,30.26,North,355,4.0,5.0,67,0.00,,CLR,0.00,475.00,VWS V14.01,2013-10-08 15:19:00,
2013-10-08 11:25:00,61.3,50.7,30.26,North,349,2.0,3.0,68,0.00,,CLR,0.00,487.00,VWS V14.01,2013-10-08 15:25:00,
2013-10-08 11:30:00,61.4,49.5,30.26,NW,323,0.0,2.0,65,0.00,,CLR,0.00,501.00,VWS V14.01,2013-10-08 15:30:00,
2013-10-08 11:35:00,61.9,49.6,30.25,East,79,0.0,1.0,64,0.00,,CLR,0.00,513.00,VWS V14.01,2013-10-08 15:35:00,
2013-10-08 11:40:00,62.2,50.3,30.25,North,360,1.0,3.0,65,0.00,,CLR,0.00,531.00,VWS V14.01,2013-10-08 15:40:00,
2013-10-08 11:45:00,62.9,51.0,30.26,NNW,344,5.0,5.0,65,0.00,,CLR,0.00,559.00,VWS V14.01,2013-10-08 15:45:00,
2013-10-08 11:50:00,63.0,50.7,30.26,ENE,68,0.0,7.0,64,0.00,,CLR,0.00,202.00,VWS V14.01,2013-10-08 15:50:00,
2013-10-08 11:55:00,62.9,50.1,30.26,North,5,1.0,4.0,63,0.00,,CLR,0.00,301.00,VWS V14.01,2013-10-08 15:55:00,
2013-10-08 12:00:00,62.8,49.6,30.26,North,360,2.0,3.0,62,0.00,,CLR,0.00,450.00,VWS V14.01,2013-10-08 16:00:00,
2013-10-08 12:05:00,63.0,49.4,30.25,North,349,0.0,1.0,61,0.00,,CLR,0.00,443.00,VWS V14.01,2013-10-08 16:05:00,
2013-10-08 12:10:00,63.4,50.6,30.24,North,355,5.0,5.0,63,0.00,,CLR,0.00,497.00,VWS V14.01,2013-10-08 16:10:00,
2013-10-08 12:15:00,64.0,50.3,30.24,East,79,0.0,3.0,61,0.00,,CLR,0.00,459.00,VWS V14.01,2013-10-08 16:15:00,
2013-10-08 12:20:00,64.1,50.0,30.25,NNW,338,3.0,3.0,60,0.00,,CLR,0.00,536.00,VWS V14.01,2013-10-08 16:20:00,
2013-10-08 12:25:00,64.2,50.5,30.24,North,355,5.0,8.0,61,0.00,,CLR,0.00,496.00,VWS V14.01,2013-10-08 16:25:00,
2013-10-08 12:31:00,64.1,49.5,30.24,North,350,6.0,6.0,59,0.00,,CLR,0.00,411.00,VWS V14.01,2013-10-08 16:31:00,
2013-10-08 12:36:00,64.5,50.8,30.24,NE,46,0.0,3.0,61,0.00,,CLR,0.00,555.00,VWS V14.01,2013-10-08 16:36:00,
2013-10-08 12:41:00,64.4,50.7,30.25,SE,144,0.0,3.0,61,0.00,,CLR,0.00,610.00,VWS V14.01,2013-10-08 16:41:00,
2013-10-08 12:46:00,64.5,49.9,30.24,NE,44,0.0,4.0,59,0.00,,CLR,0.00,427.00,VWS V14.01,2013-10-08 16:46:00,
2013-10-08 12:51:00,64.6,50.9,30.24,North,351,4.0,8.0,61,0.00,,CLR,0.00,390.00,VWS V14.01,2013-10-08 16:51:00,
2013-10-08 12:56:00,64.7,50.5,30.24,NNE,14,0.0,5.0,60,0.00,,CLR,0.00,561.00,VWS V14.01,2013-10-08 16:56:00,
2013-10-08 13:01:00,64.8,50.6,30.25,NNE,12,0.0,1.0,60,0.00,,CLR,0.00,399.00,VWS V14.01,2013-10-08 17:01:00,
2013-10-08 13:06:00,64.8,50.6,30.25,NNE,13,0.0,0.0,60,0.00,,CLR,0.00,332.00,VWS V14.01,2013-10-08 17:06:00,
2013-10-08 13:11:00,64.8,49.7,30.25,North,9,0.0,1.0,58,0.00,,CLR,0.00,346.00,VWS V14.01,2013-10-08 17:11:00,
2013-10-08 13:16:00,64.5,49.9,30.24,NNE,32,0.0,1.0,59,0.00,,CLR,0.00,346.00,VWS V14.01,2013-10-08 17:16:00,
2013-10-08 13:21:00,64.5,50.3,30.24,North,350,1.0,4.0,60,0.00,,CLR,0.00,285.00,VWS V14.01,2013-10-08 17:21:00,
2013-10-08 13:26:00,64.4,50.2,30.24,NNW,347,1.0,4.0,60,0.00,,CLR,0.00,566.00,VWS V14.01,2013-10-08 17:26:00,
2013-10-08 13:31:00,64.5,49.9,30.23,NNW,334,4.0,6.0,59,0.00,,CLR,0.00,411.00,VWS V14.01,2013-10-08 17:31:00,
2013-10-08 13:36:00,64.5,49.9,30.23,North,360,1.0,4.0,59,0.00,,CLR,0.00,471.00,VWS V14.01,2013-10-08 17:36:00,
2013-10-08 13:42:00,64.8,50.2,30.23,NNE,13,2.0,5.0,59,0.00,,CLR,0.00,540.00,VWS V14.01,2013-10-08 17:42:00,
2013-10-08 13:47:00,64.9,49.3,30.23,North,9,0.0,0.0,57,0.00,,CLR,0.00,631.00,VWS V14.01,2013-10-08 17:47:00,
2013-10-08 13:52:00,65.0,50.3,30.23,North,9,0.0,1.0,59,0.00,,CLR,0.00,339.00,VWS V14.01,2013-10-08 17:52:00,
2013-10-08 13:57:00,65.6,50.9,30.23,North,355,3.0,4.0,59,0.00,,CLR,0.00,603.00,VWS V14.01,2013-10-08 17:57:00,
2013-10-08 14:02:00,66.3,49.7,30.22,NE,49,0.0,1.0,55,0.00,,CLR,0.00,459.00,VWS V14.01,2013-10-08 18:02:00,
2013-10-08 14:07:00,66.4,49.8,30.23,NNW,338,4.0,7.0,55,0.00,,CLR,0.00,471.00,VWS V14.01,2013-10-08 18:07:00,
2013-10-08 14:12:00,66.4,50.2,30.22,NNE,14,0.0,2.0,56,0.00,,CLR,0.00,693.00,VWS V14.01,2013-10-08 18:12:00,
2013-10-08 14:17:00,66.7,50.5,30.22,SE,136,0.0,1.0,56,0.00,,CLR,0.00,624.00,VWS V14.01,2013-10-08 18:17:00,
2013-10-08 14:22:00,66.9,51.7,30.22,SE,138,0.0,1.0,58,0.00,,CLR,0.00,589.00,VWS V14.01,2013-10-08 18:22:00,
2013-10-08 14:27:00,67.5,51.8,30.21,NNW,345,4.0,5.0,57,0.00,,CLR,0.00,561.00,VWS V14.01,2013-10-08 18:27:00,
2013-10-08 14:32:00,67.6,50.9,30.21,NNW,327,8.0,8.0,55,0.00,,CLR,0.00,606.00,VWS V14.01,2013-10-08 18:32:00,
2013-10-08 14:37:00,67.5,50.3,30.21,North,5,0.0,7.0,54,0.00,,CLR,0.00,522.00,VWS V14.01,2013-10-08 18:37:00,
2013-10-08 14:42:00,67.4,51.2,30.21,NE,49,2.0,4.0,56,0.00,,CLR,0.00,564.00,VWS V14.01,2013-10-08 18:42:00,
2013-10-08 14:47:00,67.5,50.8,30.20,SSE,160,1.0,6.0,55,0.00,,CLR,0.00,427.00,VWS V14.01,2013-10-08 18:47:00,
2013-10-08 14:53:00,67.6,50.4,30.20,NNE,21,0.0,5.0,54,0.00,,CLR,0.00,457.00,VWS V14.01,2013-10-08 18:53:00,
2013-10-08 14:58:00,67.5,49.8,30.20,NNW,330,6.0,8.0,53,0.00,,CLR,0.00,601.00,VWS V14.01,2013-10-08 18:58:00,
2013-10-08 15:03:00,67.3,50.1,30.19,NNW,343,5.0,10.0,54,0.00,,CLR,0.00,427.00,VWS V14.01,2013-10-08 19:03:00,
2013-10-08 15:08:00,67.2,50.5,30.19,North,360,4.0,7.0,55,0.00,,CLR,0.00,624.00,VWS V14.01,2013-10-08 19:08:00,
2013-10-08 15:13:00,67.6,49.4,30.20,North,9,2.0,5.0,52,0.00,,CLR,0.00,582.00,VWS V14.01,2013-10-08 19:13:00,
2013-10-08 15:18:00,67.9,51.2,30.20,NNE,32,0.0,5.0,55,0.00,,CLR,0.00,512.00,VWS V14.01,2013-10-08 19:18:00,
2013-10-08 15:23:00,68.2,50.4,30.20,NNE,30,1.0,6.0,53,0.00,,CLR,0.00,575.00,VWS V14.01,2013-10-08 19:23:00,
2013-10-08 15:28:00,68.3,49.5,30.20,North,355,3.0,6.0,51,0.00,,CLR,0.00,334.00,VWS V14.01,2013-10-08 19:28:00,
2013-10-08 15:33:00,68.0,49.2,30.21,NNE,14,2.0,5.0,51,0.00,,CLR,0.00,274.00,VWS V14.01,2013-10-08 19:33:00,
2013-10-08 15:38:00,67.8,50.1,30.21,North,9,2.0,7.0,53,0.00,,CLR,0.00,362.00,VWS V14.01,2013-10-08 19:38:00,
2013-10-08 15:43:00,67.5,49.3,30.21,North,355,0.0,4.0,52,0.00,,CLR,0.00,468.00,VWS V14.01,2013-10-08 19:43:00,
2013-10-08 15:48:00,67.8,49.5,30.20,North,5,1.0,9.0,52,0.00,,CLR,0.00,513.00,VWS V14.01,2013-10-08 19:48:00,
2013-10-08 15:54:00,68.2,49.4,30.20,NW,318,4.0,4.0,51,0.00,,CLR,0.00,334.00,VWS V14.01,2013-10-08 19:54:00,
2013-10-08 15:59:00,68.3,49.0,30.20,NNE,16,4.0,6.0,50,0.00,,CLR,0.00,469.00,VWS V14.01,2013-10-08 19:59:00,
2013-10-08 16:04:00,68.6,49.2,30.20,NNE,26,0.0,4.0,50,0.00,,CLR,0.00,448.00,VWS V14.01,2013-10-08 20:04:00,
2013-10-08 16:09:00,68.8,48.9,30.20,North,360,3.0,5.0,49,0.00,,CLR,0.00,420.00,VWS V14.01,2013-10-08 20:09:00,
2013-10-08 16:14:00,68.8,48.9,30.20,NE,38,0.0,5.0,49,0.00,,CLR,0.00,171.00,VWS V14.01,2013-10-08 20:14:00,
2013-10-08 16:19:00,68.3,48.4,30.20,North,355,2.0,2.0,49,0.00,,CLR,0.00,230.00,VWS V14.01,2013-10-08 20:19:00,
2013-10-08 16:24:00,68.2,49.4,30.20,ENE,65,0.0,3.0,51,0.00,,CLR,0.00,450.00,VWS V14.01,2013-10-08 20:24:00,
2013-10-08 16:29:00,68.4,49.1,30.20,ESE,110,0.0,0.0,50,0.00,,CLR,0.00,318.00,VWS V14.01,2013-10-08 20:29:00,
2013-10-08 16:34:00,68.5,48.6,30.20,North,355,4.0,5.0,49,0.00,,CLR,0.00,404.00,VWS V14.01,2013-10-08 20:34:00,
2013-10-08 16:39:00,68.5,48.6,30.20,NNE,19,0.0,1.0,49,0.00,,CLR,0.00,279.00,VWS V14.01,2013-10-08 20:39:00,
2013-10-08 16:44:00,68.4,49.1,30.20,ENE,71,0.0,2.0,50,0.00,,CLR,0.00,142.00,VWS V14.01,2013-10-08 20:44:00,
2013-10-08 16:50:00,68.0,48.7,30.20,ENE,70,0.0,1.0,50,0.00,,CLR,0.00,264.00,VWS V14.01,2013-10-08 20:50:00,
2013-10-08 16:55:00,67.7,48.9,30.20,NNE,29,0.0,4.0,51,0.00,,CLR,0.00,251.00,VWS V14.01,2013-10-08 20:55:00,
2013-10-08 17:00:00,67.5,48.8,30.20,NNW,329,2.0,4.0,51,0.00,,CLR,0.00,195.00,VWS V14.01,2013-10-08 21:00:00,
2013-10-08 17:05:00,67.2,49.0,30.20,NE,41,2.0,2.0,52,0.00,,CLR,0.00,153.00,VWS V14.01,2013-10-08 21:05:00,
2013-10-08 17:10:00,66.9,48.2,30.20,NNW,340,0.0,1.0,51,0.00,,CLR,0.00,153.00,VWS V14.01,2013-10-08 21:10:00,
2013-10-08 17:15:00,66.7,48.5,30.21,NNW,340,0.0,0.0,52,0.00,,CLR,0.00,167.00,VWS V14.01,2013-10-08 21:15:00,
2013-10-08 17:20:00,66.6,49.0,30.21,NNW,344,0.0,1.0,53,0.00,,CLR,0.00,116.00,VWS V14.01,2013-10-08 21:20:00,
2013-10-08 17:25:00,66.6,49.0,30.21,NNE,24,0.0,4.0,53,0.00,,CLR,0.00,114.00,VWS V14.01,2013-10-08 21:25:00,
2013-10-08 17:30:00,66.5,48.9,30.20,North,5,4.0,4.0,53,0.00,,CLR,0.00,79.00,VWS V14.01,2013-10-08 21:30:00,
2013-10-08 17:36:00,66.4,48.8,30.20,NNE,13,0.0,0.0,53,0.00,,CLR,0.00,79.00,VWS V14.01,2013-10-08 21:36:00,
2013-10-08 17:41:00,66.2,48.6,30.20,NNE,15,1.0,3.0,53,0.00,,CLR,0.00,79.00,VWS V14.01,2013-10-08 21:41:00,
2013-10-08 17:46:00,65.9,48.8,30.20,North,9,0.0,1.0,54,0.00,,CLR,0.00,76.00,VWS V14.01,2013-10-08 21:46:00,
2013-10-08 17:51:00,65.8,49.2,30.20,North,9,0.0,3.0,55,0.00,,CLR,0.00,70.00,VWS V14.01,2013-10-08 21:51:00,
2013-10-08 17:56:00,65.6,49.0,30.20,NNE,22,0.0,3.0,55,0.00,,CLR,0.00,67.00,VWS V14.01,2013-10-08 21:56:00,
2013-10-08 18:01:00,65.5,48.9,30.20,NNE,22,0.0,0.0,55,0.00,,CLR,0.00,51.00,VWS V14.01,2013-10-08 22:01:00,
2013-10-08 18:06:00,65.4,48.8,30.21,NNE,22,0.0,1.0,55,0.00,,CLR,0.00,39.00,VWS V14.01,2013-10-08 22:06:00,
2013-10-08 18:11:00,65.2,48.6,30.21,NNE,22,0.0,0.0,55,0.00,,CLR,0.00,32.00,VWS V14.01,2013-10-08 22:11:00,
2013-10-08 18:16:00,65.1,48.5,30.22,NNE,22,0.0,0.0,55,0.00,,CLR,0.00,26.00,VWS V14.01,2013-10-08 22:16:00,
2013-10-08 18:22:00,64.9,48.8,30.21,NNE,22,0.0,0.0,56,0.00,,CLR,0.00,25.00,VWS V14.01,2013-10-08 22:22:00,
2013-10-08 18:27:00,64.7,48.7,30.22,NNE,22,0.0,1.0,56,0.00,,CLR,0.00,19.00,VWS V14.01,2013-10-08 22:27:00,
2013-10-08 18:32:00,64.5,49.0,30.22,NNE,22,0.0,0.0,57,0.00,,CLR,0.00,14.00,VWS V14.01,2013-10-08 22:32:00,
2013-10-08 18:37:00,64.2,49.1,30.22,NNE,22,0.0,0.0,58,0.00,,CLR,0.00,9.00,VWS V14.01,2013-10-08 22:37:00,
2013-10-08 18:42:00,64.0,48.9,30.22,NNE,22,0.0,0.0,58,0.00,,CLR,0.00,9.00,VWS V14.01,2013-10-08 22:42:00,
2013-10-08 18:47:00,63.6,49.0,30.22,NNE,22,0.0,0.0,59,0.00,,CLR,0.00,9.00,VWS V14.01,2013-10-08 22:47:00,
2013-10-08 18:52:00,63.3,48.7,30.22,NNE,22,0.0,0.0,59,0.00,,CLR,0.00,7.00,VWS V14.01,2013-10-08 22:52:00,
2013-10-08 18:57:00,62.8,49.2,30.22,NNE,22,0.0,0.0,61,0.00,,CLR,0.00,0.00,VWS V14.01,2013-10-08 22:57:00,
2013-10-08 19:02:00,62.3,49.1,30.23,NNE,22,0.0,0.0,62,0.00,,CLR,0.00,0.00,VWS V14.01,2013-10-08 23:02:00,
2013-10-08 19:07:00,61.8,49.1,30.23,NNE,22,0.0,0.0,63,0.00,,CLR,0.00,0.00,VWS V14.01,2013-10-08 23:07:00,
2013-10-08 19:12:00,61.4,48.7,30.24,NNE,22,0.0,0.0,63,0.00,,CLR,0.00,0.00,VWS V14.01,2013-10-08 23:12:00,
2013-10-08 19:18:00,61.0,47.9,30.23,NNE,22,0.0,0.0,62,0.00,,CLR,0.00,0.00,VWS V14.01,2013-10-08 23:18:00,
2013-10-08 19:23:00,60.5,47.4,30.23,NNE,23,0.0,0.0,62,0.00,,CLR,0.00,0.00,VWS V14.01,2013-10-08 23:23:00,
2013-10-08 19:28:00,60.1,47.5,30.23,NNE,23,0.0,0.0,63,0.00,,CLR,0.00,0.00,VWS V14.01,2013-10-08 23:28:00,
2013-10-08 19:33:00,59.8,47.2,30.23,NNE,22,0.0,0.0,63,0.00,,CLR,0.00,0.00,VWS V14.01,2013-10-08 23:33:00,
2013-10-08 19:38:00,59.4,47.7,30.24,ENE,58,0.0,0.0,65,0.00,,CLR,0.00,0.00,VWS V14.01,2013-10-08 23:38:00,
2013-10-08 19:43:00,59.0,47.3,30.24,ENE,58,0.0,0.0,65,0.00,,CLR,0.00,0.00,VWS V14.01,2013-10-08 23:43:00,
2013-10-08 19:48:00,59.0,47.3,30.24,ENE,60,0.0,0.0,65,0.00,,CLR,0.00,0.00,VWS V14.01,2013-10-08 23:48:00,
2013-10-08 19:54:00,58.6,46.9,30.24,ENE,69,0.0,0.0,65,0.00,,CLR,0.00,0.00,VWS V14.01,2013-10-08 23:54:00,
2013-10-08 19:59:00,58.4,47.1,30.23,ENE,70,0.0,0.0,66,0.00,,CLR,0.00,0.00,VWS V14.01,2013-10-08 23:59:00,
2013-10-08 20:04:00,58.2,46.9,30.23,ENE,69,0.0,0.0,66,0.00,,CLR,0.00,0.00,VWS V14.01,2013-10-09 00:04:00,
2013-10-08 20:09:00,58.0,46.7,30.24,ENE,70,0.0,0.0,66,0.00,,CLR,0.00,0.00,VWS V14.01,2013-10-09 00:09:00,
2013-10-08 20:14:00,57.7,46.4,30.25,ENE,70,0.0,0.0,66,0.00,,CLR,0.00,0.00,VWS V14.01,2013-10-09 00:14:00,
2013-10-08 20:19:00,57.5,46.2,30.24,ENE,78,0.0,0.0,66,0.00,,CLR,0.00,0.00,VWS V14.01,2013-10-09 00:19:00,
2013-10-08 20:24:00,57.4,46.2,30.24,ENE,78,0.0,0.0,66,0.00,,CLR,0.00,0.00,VWS V14.01,2013-10-09 00:24:00,
2013-10-08 20:29:00,57.2,46.0,30.25,ENE,78,0.0,0.0,66,0.00,,CLR,0.00,0.00,VWS V14.01,2013-10-09 00:29:00,
2013-10-08 20:34:00,57.1,46.3,30.25,ENE,78,0.0,0.0,67,0.00,,CLR,0.00,0.00,VWS V14.01,2013-10-09 00:34:00,
2013-10-08 20:39:00,56.9,46.1,30.25,ENE,78,0.0,0.0,67,0.00,,CLR,0.00,0.00,VWS V14.01,2013-10-09 00:39:00,
2013-10-08 20:45:00,56.7,45.9,30.25,ENE,78,0.0,0.0,67,0.00,,CLR,0.00,0.00,VWS V14.01,2013-10-09 00:45:00,
2013-10-08 20:50:00,56.6,46.2,30.25,ENE,78,0.0,0.0,68,0.00,,CLR,0.00,0.00,VWS V14.01,2013-10-09 00:50:00,
2013-10-08 20:55:00,56.4,46.0,30.25,ENE,78,0.0,0.0,68,0.00,,CLR,0.00,0.00,VWS V14.01,2013-10-09 00:55:00,
2013-10-08 21:00:00,56.2,45.8,30.25,ENE,78,0.0,0.0,68,0.00,,CLR,0.00,0.00,VWS V14.01,2013-10-09 01:00:00,
2013-10-08 21:05:00,56.0,46.0,30.25,ENE,78,0.0,0.0,69,0.00,,CLR,0.00,0.00,VWS V14.01,2013-10-09 01:05:00,
2013-10-08 21:10:00,55.9,45.9,30.25,ENE,78,1.0,1.0,69,0.00,,CLR,0.00,0.00,VWS V14.01,2013-10-09 01:10:00,
2013-10-08 21:15:00,55.8,45.8,30.25,ENE,78,0.0,0.0,69,0.00,,CLR,0.00,0.00,VWS V14.01,2013-10-09 01:15:00,
2013-10-08 21:20:00,55.7,45.7,30.25,ENE,78,0.0,0.0,69,0.00,,CLR,0.00,0.00,VWS V14.01,2013-10-09 01:20:00,
2013-10-08 21:26:00,55.7,46.1,30.26,ENE,77,0.0,0.0,70,0.00,,CLR,0.00,0.00,VWS V14.01,2013-10-09 01:26:00,
2013-10-08 21:31:00,55.6,46.0,30.26,ENE,77,0.0,0.0,70,0.00,,CLR,0.00,0.00,VWS V14.01,2013-10-09 01:31:00,
2013-10-08 21:36:00,55.5,46.3,30.26,ENE,76,0.0,0.0,71,0.00,,CLR,0.00,0.00,VWS V14.01,2013-10-09 01:36:00,
2013-10-08 21:41:00,55.4,46.2,30.26,ENE,76,0.0,0.0,71,0.00,,CLR,0.00,0.00,VWS V14.01,2013-10-09 01:41:00,
2013-10-08 21:46:00,55.3,46.1,30.26,ENE,77,0.0,0.0,71,0.00,,CLR,0.00,0.00,VWS V14.01,2013-10-09 01:46:00,
2013-10-08 21:51:00,55.2,46.3,30.26,ENE,76,0.0,0.0,72,0.00,,CLR,0.00,0.00,VWS V14.01,2013-10-09 01:51:00,
2013-10-08 21:56:00,55.0,46.2,30.26,ENE,77,0.0,0.0,72,0.00,,CLR,0.00,0.00,VWS V14.01,2013-10-09 01:56:00,
2013-10-08 22:01:00,54.9,46.4,30.27,ENE,77,0.0,0.0,73,0.00,,CLR,0.00,0.00,VWS V14.01,2013-10-09 02:01:00,
2013-10-08 22:07:00,54.7,46.2,30.27,ENE,76,0.0,0.0,73,0.00,,CLR,0.00,0.00,VWS V14.01,2013-10-09 02:07:00,
2013-10-08 22:12:00,54.5,46.0,30.26,ENE,77,0.0,0.0,73,0.00,,CLR,0.00,0.00,VWS V14.01,2013-10-09 02:12:00,
2013-10-08 22:17:00,54.4,45.9,30.26,ENE,77,0.0,0.0,73,0.00,,CLR,0.00,0.00,VWS V14.01,2013-10-09 02:17:00,
2013-10-08 22:22:00,54.2,45.8,30.26,ENE,76,0.0,0.0,73,0.00,,CLR,0.00,0.00,VWS V14.01,2013-10-09 02:22:00,
2013-10-08 22:27:00,54.1,46.0,30.26,ENE,77,0.0,0.0,74,0.00,,CLR,0.00,0.00,VWS V14.01,2013-10-09 02:27:00,
2013-10-08 22:32:00,54.0,45.9,30.26,ENE,77,0.0,0.0,74,0.00,,CLR,0.00,0.00,VWS V14.01,2013-10-09 02:32:00,
2013-10-08 22:37:00,53.9,45.8,30.26,ENE,76,0.0,0.0,74,0.00,,CLR,0.00,0.00,VWS V14.01,2013-10-09 02:37:00,
2013-10-08 22:42:00,53.8,45.7,30.26,ENE,76,0.0,0.0,74,0.00,,CLR,0.00,0.00,VWS V14.01,2013-10-09 02:42:00,
2013-10-08 22:48:00,53.7,45.6,30.26,ENE,77,0.0,0.0,74,0.00,,CLR,0.00,0.00,VWS V14.01,2013-10-09 02:48:00,
2013-10-08 22:53:00,53.6,45.9,30.26,ENE,76,0.0,0.0,75,0.00,,CLR,0.00,0.00,VWS V14.01,2013-10-09 02:53:00,
2013-10-08 22:58:00,53.5,45.8,30.26,ENE,76,0.0,0.0,75,0.00,,CLR,0.00,0.00,VWS V14.01,2013-10-09 02:58:00,
2013-10-08 23:03:00,53.3,45.6,30.26,ENE,76,0.0,0.0,75,0.00,,CLR,0.00,0.00,VWS V14.01,2013-10-09 03:03:00,
2013-10-08 23:08:00,53.2,45.5,30.26,ENE,77,0.0,0.0,75,0.00,,CLR,0.00,0.00,VWS V14.01,2013-10-09 03:08:00,
2013-10-08 23:13:00,53.1,45.8,30.26,ENE,76,0.0,0.0,76,0.00,,CLR,0.00,0.00,VWS V14.01,2013-10-09 03:13:00,
2013-10-08 23:18:00,52.9,45.9,30.26,ENE,77,0.0,0.0,77,0.00,,CLR,0.00,0.00,VWS V14.01,2013-10-09 03:18:00,
2013-10-08 23:24:00,52.9,45.9,30.26,ENE,76,0.0,0.0,77,0.00,,CLR,0.00,0.00,VWS V14.01,2013-10-09 03:24:00,
2013-10-08 23:29:00,52.8,45.8,30.26,ENE,76,0.0,0.0,77,0.00,,CLR,0.00,0.00,VWS V14.01,2013-10-09 03:29:00,
2013-10-08 23:34:00,52.8,45.8,30.26,ENE,76,0.0,0.0,77,0.00,,CLR,0.00,0.00,VWS V14.01,2013-10-09 03:34:00,
2013-10-08 23:39:00,52.8,45.8,30.26,ENE,77,0.0,0.0,77,0.00,,CLR,0.00,0.00,VWS V14.01,2013-10-09 03:39:00,
2013-10-08 23:44:00,52.7,45.7,30.27,ENE,77,0.0,0.0,77,0.00,,CLR,0.00,0.00,VWS V14.01,2013-10-09 03:44:00,
2013-10-08 23:49:00,52.7,45.7,30.27,ENE,76,0.0,0.0,77,0.00,,CLR,0.00,0.00,VWS V14.01,2013-10-09 03:49:00,
2013-10-08 23:54:00,52.6,46.0,30.27,ENE,77,0.0,0.0,78,0.00,,CLR,0.00,0.00,VWS V14.01,2013-10-09 03:54:00,
2013-10-08 23:59:00,52.4,45.8,30.27,ENE,77,0.0,0.0,78,0.00,,CLR,0.00,0.00,VWS V14.01,2013-10-09 03:59:00,